sensor_id;sensor_type;location;lat;lon;timestamp;temperature;humidity
16966;DHT22;8599;47.852;12.070;2022-08-30T00:00:05;18.10;99.90
16966;DHT22;8599;47.852;12.070;2022-08-30T00:02:50;18.10;99.90
16966;DHT22;8599;47.852;12.070;2022-08-30T00:05:17;18.10;99.90
16966;DHT22;8599;47.852;12.070;2022-08-30T00:07:43;18.10;99.90
16966;DHT22;8599;47.852;12.070;2022-08-30T00:10:10;18.10;99.90
16966;DHT22;8599;47.852;12.070;2022-08-30T00:12:37;18.10;99.90
16966;DHT22;8599;47.852;12.070;2022-08-30T00:15:06;18.10;99.90
16966;DHT22;8599;47.852;12.070;2022-08-30T00:17:34;18.00;99.90
16966;DHT22;8599;47.852;12.070;2022-08-30T00:20:02;18.00;99.90
16966;DHT22;8599;47.852;12.070;2022-08-30T00:22:29;17.90;99.90
16966;DHT22;8599;47.852;12.070;2022-08-30T00:24:57;18.00;99.90
16966;DHT22;8599;47.852;12.070;2022-08-30T00:27:25;17.90;99.90
16966;DHT22;8599;47.852;12.070;2022-08-30T00:29:52;17.90;99.90
16966;DHT22;8599;47.852;12.070;2022-08-30T00:32:20;17.90;99.90
16966;DHT22;8599;47.852;12.070;2022-08-30T00:34:47;17.90;99.90
16966;DHT22;8599;47.852;12.070;2022-08-30T00:37:15;17.90;99.90
16966;DHT22;8599;47.852;12.070;2022-08-30T00:39:42;17.70;99.90
16966;DHT22;8599;47.852;12.070;2022-08-30T00:42:09;17.50;99.90
16966;DHT22;8599;47.852;12.070;2022-08-30T00:44:37;17.30;99.90
16966;DHT22;8599;47.852;12.070;2022-08-30T00:47:04;17.10;99.90
16966;DHT22;8599;47.852;12.070;2022-08-30T00:49:33;16.90;99.90
16966;DHT22;8599;47.852;12.070;2022-08-30T00:52:01;16.70;99.90
16966;DHT22;8599;47.852;12.070;2022-08-30T00:54:29;16.60;99.90
16966;DHT22;8599;47.852;12.070;2022-08-30T00:56:56;16.60;99.90
16966;DHT22;8599;47.852;12.070;2022-08-30T00:59:25;16.70;99.90
16966;DHT22;8599;47.852;12.070;2022-08-30T01:01:53;16.80;99.90
16966;DHT22;8599;47.852;12.070;2022-08-30T01:04:21;17.00;99.90
16966;DHT22;8599;47.852;12.070;2022-08-30T01:06:52;17.00;99.90
16966;DHT22;8599;47.852;12.070;2022-08-30T01:09:19;17.10;99.90
16966;DHT22;8599;47.852;12.070;2022-08-30T01:11:46;17.10;99.90
16966;DHT22;8599;47.852;12.070;2022-08-30T01:14:14;17.10;99.90
16966;DHT22;8599;47.852;12.070;2022-08-30T01:16:42;17.20;99.90
16966;DHT22;8599;47.852;12.070;2022-08-30T01:19:20;17.20;99.90
16966;DHT22;8599;47.852;12.070;2022-08-30T01:21:55;17.20;99.90
16966;DHT22;8599;47.852;12.070;2022-08-30T01:24:25;17.20;99.90
16966;DHT22;8599;47.852;12.070;2022-08-30T01:26:51;17.20;99.90
16966;DHT22;8599;47.852;12.070;2022-08-30T01:29:20;17.30;99.90
16966;DHT22;8599;47.852;12.070;2022-08-30T01:31:49;17.20;99.90
16966;DHT22;8599;47.852;12.070;2022-08-30T01:34:16;17.20;99.90
16966;DHT22;8599;47.852;12.070;2022-08-30T01:36:45;17.20;99.90
16966;DHT22;8599;47.852;12.070;2022-08-30T01:39:14;17.30;99.90
16966;DHT22;8599;47.852;12.070;2022-08-30T01:41:43;17.30;99.90
16966;DHT22;8599;47.852;12.070;2022-08-30T01:44:11;17.30;99.90
16966;DHT22;8599;47.852;12.070;2022-08-30T01:46:41;17.30;99.90
16966;DHT22;8599;47.852;12.070;2022-08-30T01:49:12;17.30;99.90
16966;DHT22;8599;47.852;12.070;2022-08-30T01:51:40;17.20;99.90
16966;DHT22;8599;47.852;12.070;2022-08-30T01:54:07;16.90;99.90
16966;DHT22;8599;47.852;12.070;2022-08-30T01:56:35;17.00;99.90
16966;DHT22;8599;47.852;12.070;2022-08-30T01:59:04;17.00;99.90
16966;DHT22;8599;47.852;12.070;2022-08-30T02:01:32;17.00;99.90
16966;DHT22;8599;47.852;12.070;2022-08-30T02:04:00;16.90;99.90
16966;DHT22;8599;47.852;12.070;2022-08-30T02:06:27;16.90;99.90
16966;DHT22;8599;47.852;12.070;2022-08-30T02:08:54;16.80;99.90
16966;DHT22;8599;47.852;12.070;2022-08-30T02:11:21;16.70;99.90
16966;DHT22;8599;47.852;12.070;2022-08-30T02:13:48;16.70;99.90
16966;DHT22;8599;47.852;12.070;2022-08-30T02:16:19;16.70;99.90
16966;DHT22;8599;47.852;12.070;2022-08-30T02:18:47;16.60;99.90
16966;DHT22;8599;47.852;12.070;2022-08-30T02:21:14;16.70;99.90
16966;DHT22;8599;47.852;12.070;2022-08-30T02:23:41;16.60;99.90
16966;DHT22;8599;47.852;12.070;2022-08-30T02:26:09;16.60;99.90
16966;DHT22;8599;47.852;12.070;2022-08-30T02:28:36;16.50;99.90
16966;DHT22;8599;47.852;12.070;2022-08-30T02:31:03;16.50;99.90
16966;DHT22;8599;47.852;12.070;2022-08-30T02:33:31;16.60;99.90
16966;DHT22;8599;47.852;12.070;2022-08-30T02:35:58;16.70;99.90
16966;DHT22;8599;47.852;12.070;2022-08-30T02:38:24;16.70;99.90
16966;DHT22;8599;47.852;12.070;2022-08-30T02:40:51;16.80;99.90
16966;DHT22;8599;47.852;12.070;2022-08-30T02:43:18;16.90;99.90
16966;DHT22;8599;47.852;12.070;2022-08-30T02:45:45;16.90;99.90
16966;DHT22;8599;47.852;12.070;2022-08-30T02:48:12;16.90;99.90
16966;DHT22;8599;47.852;12.070;2022-08-30T02:50:41;17.00;99.90
16966;DHT22;8599;47.852;12.070;2022-08-30T02:53:08;16.90;99.90
16966;DHT22;8599;47.852;12.070;2022-08-30T02:55:35;16.90;99.90
16966;DHT22;8599;47.852;12.070;2022-08-30T02:58:02;16.90;99.90
16966;DHT22;8599;47.852;12.070;2022-08-30T03:00:30;16.90;99.90
16966;DHT22;8599;47.852;12.070;2022-08-30T03:02:57;16.90;99.90
16966;DHT22;8599;47.852;12.070;2022-08-30T03:05:24;16.90;99.90
16966;DHT22;8599;47.852;12.070;2022-08-30T03:07:52;16.80;99.90
16966;DHT22;8599;47.852;12.070;2022-08-30T03:10:19;16.60;99.90
16966;DHT22;8599;47.852;12.070;2022-08-30T03:12:46;16.60;99.90
16966;DHT22;8599;47.852;12.070;2022-08-30T03:15:14;16.60;99.90
16966;DHT22;8599;47.852;12.070;2022-08-30T03:17:41;16.60;99.90
16966;DHT22;8599;47.852;12.070;2022-08-30T03:20:09;16.50;99.90
16966;DHT22;8599;47.852;12.070;2022-08-30T03:22:36;16.50;99.90
16966;DHT22;8599;47.852;12.070;2022-08-30T03:25:06;16.50;99.90
16966;DHT22;8599;47.852;12.070;2022-08-30T03:27:33;16.50;99.90
16966;DHT22;8599;47.852;12.070;2022-08-30T03:30:00;16.50;99.90
16966;DHT22;8599;47.852;12.070;2022-08-30T03:32:27;16.50;99.90
16966;DHT22;8599;47.852;12.070;2022-08-30T03:34:54;16.50;99.90
16966;DHT22;8599;47.852;12.070;2022-08-30T03:37:21;16.50;99.90
16966;DHT22;8599;47.852;12.070;2022-08-30T03:39:47;16.50;99.90
16966;DHT22;8599;47.852;12.070;2022-08-30T03:42:15;16.40;99.90
16966;DHT22;8599;47.852;12.070;2022-08-30T03:44:42;16.40;99.90
16966;DHT22;8599;47.852;12.070;2022-08-30T03:47:09;16.40;99.90
16966;DHT22;8599;47.852;12.070;2022-08-30T03:49:36;16.50;99.90
16966;DHT22;8599;47.852;12.070;2022-08-30T03:52:03;16.50;99.90
16966;DHT22;8599;47.852;12.070;2022-08-30T03:54:30;16.50;99.90
16966;DHT22;8599;47.852;12.070;2022-08-30T03:56:57;16.40;99.90
16966;DHT22;8599;47.852;12.070;2022-08-30T03:59:25;16.20;99.90
16966;DHT22;8599;47.852;12.070;2022-08-30T04:01:52;16.00;99.90
16966;DHT22;8599;47.852;12.070;2022-08-30T04:04:19;15.70;99.90
16966;DHT22;8599;47.852;12.070;2022-08-30T04:06:46;15.50;99.90
16966;DHT22;8599;47.852;12.070;2022-08-30T04:09:13;15.40;99.90
16966;DHT22;8599;47.852;12.070;2022-08-30T04:11:39;15.40;99.90
16966;DHT22;8599;47.852;12.070;2022-08-30T04:14:07;15.50;99.90
16966;DHT22;8599;47.852;12.070;2022-08-30T04:16:35;15.70;99.90
16966;DHT22;8599;47.852;12.070;2022-08-30T04:19:02;15.80;99.90
16966;DHT22;8599;47.852;12.070;2022-08-30T04:21:29;15.80;99.90
16966;DHT22;8599;47.852;12.070;2022-08-30T04:23:56;15.80;99.90
16966;DHT22;8599;47.852;12.070;2022-08-30T04:26:23;15.90;99.90
16966;DHT22;8599;47.852;12.070;2022-08-30T04:28:50;16.00;99.90
16966;DHT22;8599;47.852;12.070;2022-08-30T04:31:18;16.00;99.90
16966;DHT22;8599;47.852;12.070;2022-08-30T04:33:47;16.10;99.90
16966;DHT22;8599;47.852;12.070;2022-08-30T04:36:14;16.10;99.90
16966;DHT22;8599;47.852;12.070;2022-08-30T04:38:41;16.10;99.90
16966;DHT22;8599;47.852;12.070;2022-08-30T04:41:09;16.10;99.90
16966;DHT22;8599;47.852;12.070;2022-08-30T04:43:37;16.10;99.90
16966;DHT22;8599;47.852;12.070;2022-08-30T04:46:05;16.10;99.90
16966;DHT22;8599;47.852;12.070;2022-08-30T04:48:32;16.10;99.90
16966;DHT22;8599;47.852;12.070;2022-08-30T04:51:02;16.10;99.90
16966;DHT22;8599;47.852;12.070;2022-08-30T04:53:29;16.10;99.90
16966;DHT22;8599;47.852;12.070;2022-08-30T04:55:56;16.10;99.90
16966;DHT22;8599;47.852;12.070;2022-08-30T04:58:23;16.20;99.90
16966;DHT22;8599;47.852;12.070;2022-08-30T05:00:50;16.20;99.90
16966;DHT22;8599;47.852;12.070;2022-08-30T05:03:17;16.20;99.90
16966;DHT22;8599;47.852;12.070;2022-08-30T05:05:46;16.20;99.90
16966;DHT22;8599;47.852;12.070;2022-08-30T05:08:17;16.10;99.90
16966;DHT22;8599;47.852;12.070;2022-08-30T05:10:45;16.20;99.90
16966;DHT22;8599;47.852;12.070;2022-08-30T05:13:13;16.10;99.90
16966;DHT22;8599;47.852;12.070;2022-08-30T05:15:40;16.10;99.90
16966;DHT22;8599;47.852;12.070;2022-08-30T05:18:08;16.10;99.90
16966;DHT22;8599;47.852;12.070;2022-08-30T05:20:36;16.10;99.90
16966;DHT22;8599;47.852;12.070;2022-08-30T05:23:03;16.10;99.90
16966;DHT22;8599;47.852;12.070;2022-08-30T05:25:35;16.20;99.90
16966;DHT22;8599;47.852;12.070;2022-08-30T05:28:03;16.20;99.90
16966;DHT22;8599;47.852;12.070;2022-08-30T05:30:32;16.30;99.90
16966;DHT22;8599;47.852;12.070;2022-08-30T05:32:59;16.30;99.90
16966;DHT22;8599;47.852;12.070;2022-08-30T05:35:26;16.30;99.90
16966;DHT22;8599;47.852;12.070;2022-08-30T05:37:53;16.40;99.90
16966;DHT22;8599;47.852;12.070;2022-08-30T05:40:20;16.40;99.90
16966;DHT22;8599;47.852;12.070;2022-08-30T05:42:49;16.50;99.90
16966;DHT22;8599;47.852;12.070;2022-08-30T05:45:16;16.50;99.90
16966;DHT22;8599;47.852;12.070;2022-08-30T05:47:43;16.60;99.90
16966;DHT22;8599;47.852;12.070;2022-08-30T05:50:10;16.70;99.90
16966;DHT22;8599;47.852;12.070;2022-08-30T05:52:37;16.80;99.90
16966;DHT22;8599;47.852;12.070;2022-08-30T05:55:06;16.90;99.90
16966;DHT22;8599;47.852;12.070;2022-08-30T05:57:35;16.90;99.90
16966;DHT22;8599;47.852;12.070;2022-08-30T06:00:10;17.00;99.90
16966;DHT22;8599;47.852;12.070;2022-08-30T06:02:38;17.10;99.90
16966;DHT22;8599;47.852;12.070;2022-08-30T06:05:05;17.10;99.90
16966;DHT22;8599;47.852;12.070;2022-08-30T06:07:33;17.20;99.90
16966;DHT22;8599;47.852;12.070;2022-08-30T06:10:00;17.10;99.90
16966;DHT22;8599;47.852;12.070;2022-08-30T06:12:27;17.20;99.90
16966;DHT22;8599;47.852;12.070;2022-08-30T06:14:54;17.20;99.90
16966;DHT22;8599;47.852;12.070;2022-08-30T06:17:22;17.20;99.90
16966;DHT22;8599;47.852;12.070;2022-08-30T06:19:49;17.30;99.90
16966;DHT22;8599;47.852;12.070;2022-08-30T06:22:16;17.40;99.90
16966;DHT22;8599;47.852;12.070;2022-08-30T06:24:43;17.50;99.90
16966;DHT22;8599;47.852;12.070;2022-08-30T06:27:10;17.60;99.90
16966;DHT22;8599;47.852;12.070;2022-08-30T06:29:37;17.60;99.90
16966;DHT22;8599;47.852;12.070;2022-08-30T06:32:04;17.70;99.90
16966;DHT22;8599;47.852;12.070;2022-08-30T06:34:32;17.80;99.90
16966;DHT22;8599;47.852;12.070;2022-08-30T06:36:59;17.80;99.90
16966;DHT22;8599;47.852;12.070;2022-08-30T06:39:26;17.90;99.90
16966;DHT22;8599;47.852;12.070;2022-08-30T06:41:52;18.00;99.90
16966;DHT22;8599;47.852;12.070;2022-08-30T06:44:20;18.00;99.90
16966;DHT22;8599;47.852;12.070;2022-08-30T06:46:46;18.10;99.90
16966;DHT22;8599;47.852;12.070;2022-08-30T06:49:13;18.10;99.90
16966;DHT22;8599;47.852;12.070;2022-08-30T06:51:41;18.20;99.90
16966;DHT22;8599;47.852;12.070;2022-08-30T06:54:09;18.20;99.90
16966;DHT22;8599;47.852;12.070;2022-08-30T06:56:37;18.30;99.90
16966;DHT22;8599;47.852;12.070;2022-08-30T06:59:04;18.30;99.90
16966;DHT22;8599;47.852;12.070;2022-08-30T07:01:31;18.40;99.90
16966;DHT22;8599;47.852;12.070;2022-08-30T07:03:58;18.50;99.90
16966;DHT22;8599;47.852;12.070;2022-08-30T07:06:28;18.50;99.90
16966;DHT22;8599;47.852;12.070;2022-08-30T07:08:56;18.70;99.90
16966;DHT22;8599;47.852;12.070;2022-08-30T07:11:26;18.70;99.90
16966;DHT22;8599;47.852;12.070;2022-08-30T07:13:53;18.80;99.90
16966;DHT22;8599;47.852;12.070;2022-08-30T07:16:20;18.90;99.90
16966;DHT22;8599;47.852;12.070;2022-08-30T07:18:47;18.90;99.90
16966;DHT22;8599;47.852;12.070;2022-08-30T07:21:18;18.90;99.90
16966;DHT22;8599;47.852;12.070;2022-08-30T07:23:46;19.00;99.90
16966;DHT22;8599;47.852;12.070;2022-08-30T07:26:19;19.00;99.90
16966;DHT22;8599;47.852;12.070;2022-08-30T07:28:46;19.20;99.90
16966;DHT22;8599;47.852;12.070;2022-08-30T07:31:16;19.20;99.90
16966;DHT22;8599;47.852;12.070;2022-08-30T07:33:43;19.30;99.90
16966;DHT22;8599;47.852;12.070;2022-08-30T07:36:10;19.40;99.90
16966;DHT22;8599;47.852;12.070;2022-08-30T07:38:37;19.30;99.90
16966;DHT22;8599;47.852;12.070;2022-08-30T07:41:05;19.40;99.90
16966;DHT22;8599;47.852;12.070;2022-08-30T07:43:35;19.40;99.90
16966;DHT22;8599;47.852;12.070;2022-08-30T07:46:03;19.50;99.90
16966;DHT22;8599;47.852;12.070;2022-08-30T07:48:30;19.50;99.90
16966;DHT22;8599;47.852;12.070;2022-08-30T07:50:57;19.60;99.90
16966;DHT22;8599;47.852;12.070;2022-08-30T07:53:25;19.60;99.90
16966;DHT22;8599;47.852;12.070;2022-08-30T07:55:52;19.70;99.90
16966;DHT22;8599;47.852;12.070;2022-08-30T07:58:19;19.70;99.90
16966;DHT22;8599;47.852;12.070;2022-08-30T08:00:47;19.70;99.90
16966;DHT22;8599;47.852;12.070;2022-08-30T08:03:15;19.70;99.90
16966;DHT22;8599;47.852;12.070;2022-08-30T08:05:43;19.80;99.90
16966;DHT22;8599;47.852;12.070;2022-08-30T08:08:11;19.80;99.90
16966;DHT22;8599;47.852;12.070;2022-08-30T08:10:40;19.90;99.90
16966;DHT22;8599;47.852;12.070;2022-08-30T08:13:07;20.00;99.90
16966;DHT22;8599;47.852;12.070;2022-08-30T08:15:34;20.00;99.90
16966;DHT22;8599;47.852;12.070;2022-08-30T08:18:02;20.00;99.90
16966;DHT22;8599;47.852;12.070;2022-08-30T08:20:30;20.00;99.90
16966;DHT22;8599;47.852;12.070;2022-08-30T08:22:57;20.20;99.90
16966;DHT22;8599;47.852;12.070;2022-08-30T08:25:24;20.20;99.90
16966;DHT22;8599;47.852;12.070;2022-08-30T08:27:51;20.30;99.90
16966;DHT22;8599;47.852;12.070;2022-08-30T08:30:19;20.40;99.90
16966;DHT22;8599;47.852;12.070;2022-08-30T08:32:47;20.40;99.90
16966;DHT22;8599;47.852;12.070;2022-08-30T08:35:16;20.40;99.90
16966;DHT22;8599;47.852;12.070;2022-08-30T08:37:43;20.40;99.90
16966;DHT22;8599;47.852;12.070;2022-08-30T08:40:14;20.40;99.90
16966;DHT22;8599;47.852;12.070;2022-08-30T08:42:52;20.50;99.90
16966;DHT22;8599;47.852;12.070;2022-08-30T08:45:37;20.50;99.90
16966;DHT22;8599;47.852;12.070;2022-08-30T08:48:09;20.50;99.90
16966;DHT22;8599;47.852;12.070;2022-08-30T08:50:38;20.70;99.90
16966;DHT22;8599;47.852;12.070;2022-08-30T08:53:32;20.70;99.90
16966;DHT22;8599;47.852;12.070;2022-08-30T08:56:04;20.70;99.90
16966;DHT22;8599;47.852;12.070;2022-08-30T08:58:40;20.70;99.90
16966;DHT22;8599;47.852;12.070;2022-08-30T09:01:09;20.80;99.90
16966;DHT22;8599;47.852;12.070;2022-08-30T09:03:36;20.80;99.90
16966;DHT22;8599;47.852;12.070;2022-08-30T09:06:21;21.00;99.90
16966;DHT22;8599;47.852;12.070;2022-08-30T09:08:49;21.00;99.90
16966;DHT22;8599;47.852;12.070;2022-08-30T09:11:20;21.10;99.90
16966;DHT22;8599;47.852;12.070;2022-08-30T09:13:48;21.10;99.90
16966;DHT22;8599;47.852;12.070;2022-08-30T09:16:50;21.20;99.90
16966;DHT22;8599;47.852;12.070;2022-08-30T09:19:38;21.20;99.90
16966;DHT22;8599;47.852;12.070;2022-08-30T09:22:24;21.20;99.90
16966;DHT22;8599;47.852;12.070;2022-08-30T09:24:56;21.20;99.90
16966;DHT22;8599;47.852;12.070;2022-08-30T09:27:27;21.30;99.90
16966;DHT22;8599;47.852;12.070;2022-08-30T09:29:59;21.40;99.90
16966;DHT22;8599;47.852;12.070;2022-08-30T09:32:30;21.50;99.90
16966;DHT22;8599;47.852;12.070;2022-08-30T09:34:57;21.50;99.90
16966;DHT22;8599;47.852;12.070;2022-08-30T09:37:33;21.80;99.90
16966;DHT22;8599;47.852;12.070;2022-08-30T09:40:06;21.80;99.90
16966;DHT22;8599;47.852;12.070;2022-08-30T09:42:34;21.80;99.90
16966;DHT22;8599;47.852;12.070;2022-08-30T09:45:02;21.70;99.90
16966;DHT22;8599;47.852;12.070;2022-08-30T09:47:40;21.80;99.90
16966;DHT22;8599;47.852;12.070;2022-08-30T09:50:10;21.80;99.90
16966;DHT22;8599;47.852;12.070;2022-08-30T09:52:46;21.90;99.90
16966;DHT22;8599;47.852;12.070;2022-08-30T09:55:37;22.20;99.90
16966;DHT22;8599;47.852;12.070;2022-08-30T09:58:09;22.20;99.90
16966;DHT22;8599;47.852;12.070;2022-08-30T10:00:41;22.20;99.90
16966;DHT22;8599;47.852;12.070;2022-08-30T10:03:24;22.20;99.90
16966;DHT22;8599;47.852;12.070;2022-08-30T10:05:57;22.20;99.90
16966;DHT22;8599;47.852;12.070;2022-08-30T10:08:37;22.30;99.90
16966;DHT22;8599;47.852;12.070;2022-08-30T10:11:10;22.30;99.90
16966;DHT22;8599;47.852;12.070;2022-08-30T10:14:00;22.50;99.90
16966;DHT22;8599;47.852;12.070;2022-08-30T10:16:39;22.60;99.90
16966;DHT22;8599;47.852;12.070;2022-08-30T10:19:26;22.60;99.90
16966;DHT22;8599;47.852;12.070;2022-08-30T10:22:01;22.60;99.90
16966;DHT22;8599;47.852;12.070;2022-08-30T10:24:34;22.60;99.90
16966;DHT22;8599;47.852;12.070;2022-08-30T10:27:06;22.60;99.90
16966;DHT22;8599;47.852;12.070;2022-08-30T10:29:39;22.80;99.90
16966;DHT22;8599;47.852;12.070;2022-08-30T10:32:15;22.80;99.90
16966;DHT22;8599;47.852;12.070;2022-08-30T10:34:49;22.90;99.90
16966;DHT22;8599;47.852;12.070;2022-08-30T10:37:19;22.90;99.90
16966;DHT22;8599;47.852;12.070;2022-08-30T10:39:51;22.90;99.90
16966;DHT22;8599;47.852;12.070;2022-08-30T10:42:21;23.00;99.90
16966;DHT22;8599;47.852;12.070;2022-08-30T10:44:53;23.10;99.90
16966;DHT22;8599;47.852;12.070;2022-08-30T10:47:28;23.10;99.90
16966;DHT22;8599;47.852;12.070;2022-08-30T10:50:03;23.20;99.90
16966;DHT22;8599;47.852;12.070;2022-08-30T10:52:34;23.50;99.90
16966;DHT22;8599;47.852;12.070;2022-08-30T10:55:10;23.50;99.90
16966;DHT22;8599;47.852;12.070;2022-08-30T10:57:39;23.50;99.90
16966;DHT22;8599;47.852;12.070;2022-08-30T11:00:09;23.70;99.90
16966;DHT22;8599;47.852;12.070;2022-08-30T11:03:07;23.70;99.90
16966;DHT22;8599;47.852;12.070;2022-08-30T11:05:44;23.90;99.90
16966;DHT22;8599;47.852;12.070;2022-08-30T11:08:24;24.00;99.90
16966;DHT22;8599;47.852;12.070;2022-08-30T11:11:03;23.90;99.90
16966;DHT22;8599;47.852;12.070;2022-08-30T11:13:35;23.90;99.90
16966;DHT22;8599;47.852;12.070;2022-08-30T11:16:06;23.90;99.90
16966;DHT22;8599;47.852;12.070;2022-08-30T11:18:42;24.10;99.90
16966;DHT22;8599;47.852;12.070;2022-08-30T11:21:21;24.30;99.90
16966;DHT22;8599;47.852;12.070;2022-08-30T11:24:06;24.20;99.90
16966;DHT22;8599;47.852;12.070;2022-08-30T11:26:53;24.20;99.90
16966;DHT22;8599;47.852;12.070;2022-08-30T11:29:37;24.30;99.90
16966;DHT22;8599;47.852;12.070;2022-08-30T11:32:24;24.40;99.90
16966;DHT22;8599;47.852;12.070;2022-08-30T11:35:10;24.30;99.90
16966;DHT22;8599;47.852;12.070;2022-08-30T11:37:40;24.50;99.90
16966;DHT22;8599;47.852;12.070;2022-08-30T11:40:45;24.60;99.90
16966;DHT22;8599;47.852;12.070;2022-08-30T11:43:48;24.70;99.90
16966;DHT22;8599;47.852;12.070;2022-08-30T11:46:18;24.80;99.90
16966;DHT22;8599;47.852;12.070;2022-08-30T11:48:53;24.80;99.90
16966;DHT22;8599;47.852;12.070;2022-08-30T11:51:49;24.90;99.90
16966;DHT22;8599;47.852;12.070;2022-08-30T11:54:26;24.90;99.90
16966;DHT22;8599;47.852;12.070;2022-08-30T11:57:03;25.10;99.90
16966;DHT22;8599;47.852;12.070;2022-08-30T11:59:40;25.20;99.90
16966;DHT22;8599;47.852;12.070;2022-08-30T12:02:42;25.30;99.90
16966;DHT22;8599;47.852;12.070;2022-08-30T12:08:45;25.30;99.90
16966;DHT22;8599;47.852;12.070;2022-08-30T12:14:31;25.50;99.90
16966;DHT22;8599;47.852;12.070;2022-08-30T12:16:58;25.60;99.90
16966;DHT22;8599;47.852;12.070;2022-08-30T12:19:44;25.60;99.90
16966;DHT22;8599;47.852;12.070;2022-08-30T12:22:16;25.80;99.90
16966;DHT22;8599;47.852;12.070;2022-08-30T12:24:47;25.80;99.90
16966;DHT22;8599;47.852;12.070;2022-08-30T12:27:27;25.90;99.90
16966;DHT22;8599;47.852;12.070;2022-08-30T12:29:55;25.90;99.90
16966;DHT22;8599;47.852;12.070;2022-08-30T12:32:24;26.00;99.90
16966;DHT22;8599;47.852;12.070;2022-08-30T12:34:54;26.10;99.90
16966;DHT22;8599;47.852;12.070;2022-08-30T12:37:24;26.10;99.90
16966;DHT22;8599;47.852;12.070;2022-08-30T12:40:03;26.10;98.90
16966;DHT22;8599;47.852;12.070;2022-08-30T12:42:32;26.10;98.40
16966;DHT22;8599;47.852;12.070;2022-08-30T12:45:03;26.20;98.00
16966;DHT22;8599;47.852;12.070;2022-08-30T12:47:36;26.50;97.60
16966;DHT22;8599;47.852;12.070;2022-08-30T12:50:05;26.50;98.40
16966;DHT22;8599;47.852;12.070;2022-08-30T12:52:34;26.70;98.00
16966;DHT22;8599;47.852;12.070;2022-08-30T12:55:12;26.80;98.60
16966;DHT22;8599;47.852;12.070;2022-08-30T12:57:41;26.90;98.20
16966;DHT22;8599;47.852;12.070;2022-08-30T13:00:10;27.00;97.40
16966;DHT22;8599;47.852;12.070;2022-08-30T13:02:48;27.20;97.80
16966;DHT22;8599;47.852;12.070;2022-08-30T13:05:41;27.40;97.00
16966;DHT22;8599;47.852;12.070;2022-08-30T13:08:18;27.30;96.90
16966;DHT22;8599;47.852;12.070;2022-08-30T13:10:56;27.50;96.40
16966;DHT22;8599;47.852;12.070;2022-08-30T13:13:30;27.50;96.10
16966;DHT22;8599;47.852;12.070;2022-08-30T13:16:07;27.60;96.60
16966;DHT22;8599;47.852;12.070;2022-08-30T13:18:34;27.40;96.50
16966;DHT22;8599;47.852;12.070;2022-08-30T13:21:26;27.60;96.00
16966;DHT22;8599;47.852;12.070;2022-08-30T13:23:56;27.60;96.20
16966;DHT22;8599;47.852;12.070;2022-08-30T13:26:24;27.70;97.10
16966;DHT22;8599;47.852;12.070;2022-08-30T13:28:53;27.60;95.60
16966;DHT22;8599;47.852;12.070;2022-08-30T13:31:21;27.80;96.30
16966;DHT22;8599;47.852;12.070;2022-08-30T13:33:48;28.00;96.50
16966;DHT22;8599;47.852;12.070;2022-08-30T13:36:18;27.80;95.20
16966;DHT22;8599;47.852;12.070;2022-08-30T13:38:46;27.80;95.10
16966;DHT22;8599;47.852;12.070;2022-08-30T13:41:14;27.90;95.50
16966;DHT22;8599;47.852;12.070;2022-08-30T13:43:42;28.30;95.40
16966;DHT22;8599;47.852;12.070;2022-08-30T13:46:10;28.50;93.80
16966;DHT22;8599;47.852;12.070;2022-08-30T13:48:37;28.60;93.50
16966;DHT22;8599;47.852;12.070;2022-08-30T13:51:04;28.40;93.60
16966;DHT22;8599;47.852;12.070;2022-08-30T13:53:32;28.30;94.10
16966;DHT22;8599;47.852;12.070;2022-08-30T13:55:59;28.50;94.60
16966;DHT22;8599;47.852;12.070;2022-08-30T13:58:27;28.70;93.60
16966;DHT22;8599;47.852;12.070;2022-08-30T14:00:55;28.70;92.80
16966;DHT22;8599;47.852;12.070;2022-08-30T14:03:22;28.60;93.10
16966;DHT22;8599;47.852;12.070;2022-08-30T14:05:49;28.00;92.50
16966;DHT22;8599;47.852;12.070;2022-08-30T14:08:19;27.80;92.80
16966;DHT22;8599;47.852;12.070;2022-08-30T14:10:46;27.90;93.50
16966;DHT22;8599;47.852;12.070;2022-08-30T14:13:13;28.10;93.50
16966;DHT22;8599;47.852;12.070;2022-08-30T14:15:40;27.90;93.90
16966;DHT22;8599;47.852;12.070;2022-08-30T14:18:08;27.60;93.50
16966;DHT22;8599;47.852;12.070;2022-08-30T14:20:35;27.50;94.40
16966;DHT22;8599;47.852;12.070;2022-08-30T14:23:02;27.70;93.90
16966;DHT22;8599;47.852;12.070;2022-08-30T14:25:29;27.90;93.50
16966;DHT22;8599;47.852;12.070;2022-08-30T14:27:56;28.10;93.90
16966;DHT22;8599;47.852;12.070;2022-08-30T14:30:24;28.00;93.50
16966;DHT22;8599;47.852;12.070;2022-08-30T14:32:51;27.90;93.50
16966;DHT22;8599;47.852;12.070;2022-08-30T14:35:19;28.10;93.70
16966;DHT22;8599;47.852;12.070;2022-08-30T14:37:46;28.10;93.90
16966;DHT22;8599;47.852;12.070;2022-08-30T14:40:13;27.80;93.10
16966;DHT22;8599;47.852;12.070;2022-08-30T14:42:40;27.40;93.40
16966;DHT22;8599;47.852;12.070;2022-08-30T14:45:08;27.40;94.60
16966;DHT22;8599;47.852;12.070;2022-08-30T14:47:35;27.40;93.90
16966;DHT22;8599;47.852;12.070;2022-08-30T14:50:03;27.40;94.40
16966;DHT22;8599;47.852;12.070;2022-08-30T14:52:32;27.30;94.80
16966;DHT22;8599;47.852;12.070;2022-08-30T14:54:59;27.30;94.00
16966;DHT22;8599;47.852;12.070;2022-08-30T14:57:27;27.50;94.30
16966;DHT22;8599;47.852;12.070;2022-08-30T14:59:53;27.80;94.10
16966;DHT22;8599;47.852;12.070;2022-08-30T15:02:20;28.50;92.60
16966;DHT22;8599;47.852;12.070;2022-08-30T15:04:47;29.20;92.40
16966;DHT22;8599;47.852;12.070;2022-08-30T15:07:14;29.30;91.30
16966;DHT22;8599;47.852;12.070;2022-08-30T15:09:43;29.10;90.50
16966;DHT22;8599;47.852;12.070;2022-08-30T15:12:10;29.00;91.20
16966;DHT22;8599;47.852;12.070;2022-08-30T15:14:37;28.90;91.40
16966;DHT22;8599;47.852;12.070;2022-08-30T15:17:04;29.00;91.70
16966;DHT22;8599;47.852;12.070;2022-08-30T15:19:31;29.10;91.40
16966;DHT22;8599;47.852;12.070;2022-08-30T15:21:59;28.80;91.80
16966;DHT22;8599;47.852;12.070;2022-08-30T15:24:26;28.80;91.70
16966;DHT22;8599;47.852;12.070;2022-08-30T15:26:54;28.70;92.00
16966;DHT22;8599;47.852;12.070;2022-08-30T15:29:21;28.50;91.80
16966;DHT22;8599;47.852;12.070;2022-08-30T15:31:49;28.30;91.70
16966;DHT22;8599;47.852;12.070;2022-08-30T15:34:18;28.20;92.50
16966;DHT22;8599;47.852;12.070;2022-08-30T15:36:46;27.60;93.40
16966;DHT22;8599;47.852;12.070;2022-08-30T15:39:14;27.20;94.00
16966;DHT22;8599;47.852;12.070;2022-08-30T15:41:41;27.10;94.40
16966;DHT22;8599;47.852;12.070;2022-08-30T15:44:10;26.90;95.00
16966;DHT22;8599;47.852;12.070;2022-08-30T15:46:38;26.70;94.80
16966;DHT22;8599;47.852;12.070;2022-08-30T15:49:07;26.60;95.20
16966;DHT22;8599;47.852;12.070;2022-08-30T15:51:36;26.60;95.90
16966;DHT22;8599;47.852;12.070;2022-08-30T15:54:03;26.30;96.30